Time;durP1;ratioP1;P1;durP2;ratioP2;P2;SDS_P1;SDS_P2;PMS_P1;PMS_P2;Temp;Humidity;BMP_temperature;BMP_pressure;BME280_temperature;BME280_humidity;BME280_pressure;Samples;Min_cycle;Max_cycle;Signal;HPM_P1;HPM_P2
2020/12/16 00:56:13;;;;;;;176.1;103.9;;;;;;;-3.13;87.62793;99136.27;;;;
2020/12/16 01:06:11;;;;;;;162.5;113.7;;;;;;;-3.1;87.69824;99141.13;;;;
2020/12/16 01:16:08;;;;;;;112.9;81.2;;;;;;;-3.09;87.93945;99134.85;;;;
2020/12/16 01:26:05;;;;;;;118.4;71.3;;;;;;;-2.91;87.53027;99144.72;;;;
2020/12/16 01:36:03;;;;;;;124.9;87.1;;;;;;;-2.9;87.70605;99141.08;;;;
2020/12/16 01:46:00;;;;;;;114.3;71.8;;;;;;;-2.95;87.54492;99154.87;;;;
2020/12/16 01:55:58;;;;;;;106.2;70.2;;;;;;;-2.98;87.24512;99155.28;;;;
2020/12/16 02:05:55;;;;;;;91.3;58.5;;;;;;;-2.95;87.38086;99160.14;;;;
2020/12/16 02:15:53;;;;;;;96.3;66;;;;;;;-2.89;87.32715;99179.63;;;;
2020/12/16 02:25:50;;;;;;;102;69;;;;;;;-2.81;87.20215;99182.05;;;;
2020/12/16 02:35:48;;;;;;;111.6;81.4;;;;;;;-2.9;87.68457;99162.17;;;;
2020/12/16 02:45:48;;;;;;;95.7;66;;;;;;;-2.78;87.25098;99173.72;;;;
2020/12/16 02:55:43;;;;;;;86.8;63;;;;;;;-2.74;87.71777;99177.56;;;;
2020/12/16 03:05:41;;;;;;;104.2;62.4;;;;;;;-2.78;88.00293;99176.36;;;;
2020/12/16 03:25:36;;;;;;;52.2;37.6;;;;;;;-2.39;88.53125;99192.03;;;;
2020/12/16 03:35:33;;;;;;;80.8;56;;;;;;;-2.26;87.28223;99186.72;;;;
2020/12/16 03:45:31;;;;;;;66.4;49.4;;;;;;;-2.38;88.26074;99187.56;;;;
2020/12/16 03:55:29;;;;;;;54.2;38.3;;;;;;;-1.89;90.73145;99192.2;;;;
2020/12/16 04:05:26;;;;;;;68.5;47.1;;;;;;;-1.7;89.42871;99193.92;;;;
2020/12/16 04:15:24;;;;;;;65.2;41.6;;;;;;;-1.62;88.29785;99201.56;;;;
2020/12/16 04:25:24;;;;;;;49.1;40;;;;;;;-1.55;88.07227;99199.69;;;;
2020/12/16 04:35:19;;;;;;;79.1;57.6;;;;;;;-1.7;87.20117;99215.84;;;;
2020/12/16 04:45:17;;;;;;;59.8;42.7;;;;;;;-1.58;87.25781;99215.98;;;;
2020/12/16 04:55:15;;;;;;;48.1;36.2;;;;;;;-1.57;87.33691;99217.61;;;;
2020/12/16 05:05:13;;;;;;;52.8;41.2;;;;;;;-1.69;86.75488;99225.4;;;;
2020/12/16 05:15:10;;;;;;;115.3;69.3;;;;;;;-1.85;86.44922;99231.19;;;;
2020/12/16 05:25:08;;;;;;;81.5;59.5;;;;;;;-2.05;86.125;99239.2;;;;
2020/12/16 05:35:05;;;;;;;51.2;38.8;;;;;;;-2.22;87.55176;99250.47;;;;
2020/12/16 05:45:03;;;;;;;88.5;54.6;;;;;;;-2.3;88.53906;99269.17;;;;
2020/12/16 05:55:01;;;;;;;61.1;41.3;;;;;;;-2.44;87.46387;99263.12;;;;
2020/12/16 06:04:58;;;;;;;64.3;41.4;;;;;;;-2.6;87.26758;99263.55;;;;
2020/12/16 06:15:09;;;;;;;38.3;29.2;;;;;;;-2.71;88.38965;99274.75;;;;
2020/12/16 06:24:58;;;;;;;55;33.4;;;;;;;-2.69;89.22168;99291.17;;;;
2020/12/16 06:34:55;;;;;;;51;33.7;;;;;;;-2.6;90.2002;99300.48;;;;
2020/12/16 06:45:11;;;;;;;44;30.2;;;;;;;-2.46;90.84082;99299.44;;;;
2020/12/16 06:54:52;;;;;;;50.1;30.6;;;;;;;-2.46;90.90527;99296.8;;;;
2020/12/16 07:04:43;;;;;;;39.8;31.3;;;;;;;-2.41;90.34863;99302.29;;;;
2020/12/16 07:14:40;;;;;;;66.5;44.1;;;;;;;-2.25;90.34961;99295.73;;;;
2020/12/16 07:24:38;;;;;;;52.9;36.7;;;;;;;-2.12;89.75684;99304.42;;;;
2020/12/16 07:34:35;;;;;;;50.1;36.1;;;;;;;-1.9;89.93262;99301.51;;;;
2020/12/16 07:44:33;;;;;;;52.1;40.6;;;;;;;-1.63;89.00781;99314.39;;;;
2020/12/16 07:54:30;;;;;;;61.9;37.5;;;;;;;-1.49;88.55566;99317.77;;;;
2020/12/16 08:04:28;;;;;;;52.7;45.4;;;;;;;-1.38;87.69434;99332.96;;;;
2020/12/16 08:14:26;;;;;;;77.7;60;;;;;;;-1.35;87.08691;99335.18;;;;
2020/12/16 08:24:23;;;;;;;102.7;78.9;;;;;;;-1.22;86.47949;99343.05;;;;
2020/12/16 08:34:21;;;;;;;158.4;116.1;;;;;;;-1.02;86.48535;99356.14;;;;
2020/12/16 08:44:18;;;;;;;120.7;96.1;;;;;;;-0.79;86.41309;99352.91;;;;
2020/12/16 08:54:17;;;;;;;119;93.1;;;;;;;-0.64;86.11328;99377.23;;;;
2020/12/16 09:04:14;;;;;;;133.8;96;;;;;;;-0.48;86.36523;99389.11;;;;
2020/12/16 09:14:11;;;;;;;116.7;86.7;;;;;;;-0.23;86.41602;99400.5;;;;
2020/12/16 09:24:09;;;;;;;128.6;93.3;;;;;;;0.18;86.56543;99392.75;;;;
2020/12/16 09:34:07;;;;;;;129.5;105.3;;;;;;;0.56;86.69629;99397;;;;
2020/12/16 09:44:05;;;;;;;130.2;96.8;;;;;;;0.82;86.47363;99399.34;;;;
2020/12/16 09:54:03;;;;;;;110.6;95;;;;;;;1.06;85.9082;99393.08;;;;
2020/12/16 10:04:01;;;;;;;137.7;97.7;;;;;;;1.39;85.8291;99408.5;;;;
2020/12/16 10:13:59;;;;;;;103.8;80.7;;;;;;;1.81;85.7041;99425.2;;;;
2020/12/16 10:23:57;;;;;;;80;64.6;;;;;;;2.13;84.26758;99415.85;;;;
2020/12/16 10:33:55;;;;;;;79.5;58.9;;;;;;;2.3;82.92188;99416.75;;;;
2020/12/16 10:43:53;;;;;;;61.7;47;;;;;;;2.75;82.76465;99402.77;;;;
2020/12/16 10:53:51;;;;;;;58;45.8;;;;;;;3.1;79.89746;99408.77;;;;
2020/12/16 11:03:51;;;;;;;49.9;40.2;;;;;;;3.28;78.56738;99416.55;;;;
2020/12/16 11:13:48;;;;;;;46.7;34.6;;;;;;;3.68;79.03809;99391.64;;;;
2020/12/16 11:23:45;;;;;;;39.5;30.6;;;;;;;3.73;75.68457;99383.71;;;;
2020/12/16 11:33:43;;;;;;;55.3;41.4;;;;;;;3.78;76.27148;99386.47;;;;
2020/12/16 11:43:41;;;;;;;37.8;32.8;;;;;;;4.01;75.72363;99383.6;;;;
2020/12/16 11:53:39;;;;;;;29.7;22.6;;;;;;;4.04;74.67188;99372.44;;;;
2020/12/16 12:03:38;;;;;;;41.9;29.7;;;;;;;4.06;75.59961;99363.13;;;;
2020/12/16 12:13:36;;;;;;;40.6;32;;;;;;;4.29;74.95996;99369.31;;;;
2020/12/16 12:23:34;;;;;;;36.6;29.8;;;;;;;4.39;74.26465;99375.59;;;;
2020/12/16 12:33:32;;;;;;;50.6;31.9;;;;;;;4.33;73.78809;99367.77;;;;
2020/12/16 12:43:31;;;;;;;48;35.3;;;;;;;4.3;73.56055;99371.75;;;;
2020/12/16 12:53:29;;;;;;;35.3;31.6;;;;;;;4.1;74.40332;99370.64;;;;
2020/12/16 13:03:27;;;;;;;39.9;35.6;;;;;;;3.87;74.9541;99369.8;;;;
2020/12/16 13:13:26;;;;;;;41.2;33.7;;;;;;;3.81;75.6875;99364.65;;;;
2020/12/16 13:23:27;;;;;;;43.9;33.5;;;;;;;3.74;76.04102;99369.34;;;;
2020/12/16 13:33:22;;;;;;;45.6;38.2;;;;;;;3.6;76.88379;99376.86;;;;
2020/12/16 13:43:20;;;;;;;49;37.4;;;;;;;3.5;77.71875;99368.7;;;;
2020/12/16 13:53:19;;;;;;;52.3;39;;;;;;;3.42;77.93848;99369.91;;;;
2020/12/16 14:03:17;;;;;;;41;36.7;;;;;;;3.23;78.24707;99383.7;;;;
2020/12/16 14:13:15;;;;;;;48.9;37.1;;;;;;;3.04;78.49023;99383.09;;;;
2020/12/16 14:23:13;;;;;;;47.9;37;;;;;;;2.79;79.12012;99391.42;;;;
2020/12/16 14:33:11;;;;;;;47.7;37;;;;;;;2.67;79.17578;99390.66;;;;
2020/12/16 14:43:09;;;;;;;41.8;36;;;;;;;2.44;79.83008;99393.37;;;;
2020/12/16 14:53:07;;;;;;;49.7;39.9;;;;;;;2.34;80.08594;99398.48;;;;
2020/12/16 15:03:05;;;;;;;70.8;56.5;;;;;;;2.15;81.90723;99394.36;;;;
2020/12/16 15:13:03;;;;;;;68.4;48.1;;;;;;;1.98;83.19043;99397.7;;;;
2020/12/16 15:23:01;;;;;;;57.4;47.1;;;;;;;2;82.77441;99398.3;;;;
2020/12/16 15:32:59;;;;;;;70.9;55.5;;;;;;;1.99;82.66211;99395.86;;;;
2020/12/16 15:42:57;;;;;;;121.7;96.4;;;;;;;1.91;82.71387;99393.54;;;;
2020/12/16 15:52:55;;;;;;;95.3;67.6;;;;;;;1.84;82.71094;99406.95;;;;
2020/12/16 16:02:54;;;;;;;70.7;60;;;;;;;1.79;82.6123;99414.81;;;;
2020/12/16 16:12:55;;;;;;;73.4;57.6;;;;;;;1.68;82.58008;99426.23;;;;
2020/12/16 16:22:52;;;;;;;58;43.6;;;;;;;1.62;82.58105;99429.81;;;;
2020/12/16 16:32:48;;;;;;;49.7;44.7;;;;;;;1.54;82.80762;99427.48;;;;
2020/12/16 16:42:45;;;;;;;65.5;51.1;;;;;;;1.61;83.30371;99435.34;;;;
2020/12/16 16:52:43;;;;;;;57.3;47.1;;;;;;;1.59;83.63281;99438.25;;;;
2020/12/16 17:02:44;;;;;;;71.5;53.3;;;;;;;1.69;83.56348;99451.78;;;;
2020/12/16 17:12:39;;;;;;;62.9;46.2;;;;;;;1.75;83.58691;99445.54;;;;
2020/12/16 17:22:37;;;;;;;65;49.8;;;;;;;1.73;84.17871;99460.91;;;;
2020/12/16 17:32:35;;;;;;;56.4;45.5;;;;;;;1.89;83.73633;99457.58;;;;
2020/12/16 17:42:33;;;;;;;99.9;69.8;;;;;;;2.03;83.47754;99472.27;;;;
2020/12/16 17:52:31;;;;;;;132.8;89.7;;;;;;;2.05;83.21387;99458.73;;;;
2020/12/16 18:02:29;;;;;;;92.8;63.9;;;;;;;2.17;83.89844;99490.65;;;;
2020/12/16 18:12:27;;;;;;;93.4;69.5;;;;;;;2.22;84.20801;99501.41;;;;
2020/12/16 18:22:27;;;;;;;75.3;60.2;;;;;;;2.16;84.03125;99503.13;;;;
2020/12/16 18:32:24;;;;;;;79.4;56.3;;;;;;;2.28;83.95508;99509.28;;;;
2020/12/16 18:42:23;;;;;;;54.8;43;;;;;;;2.36;83.94824;99498.27;;;;
2020/12/16 18:52:20;;;;;;;46.3;38.5;;;;;;;2.39;84.30664;99507.66;;;;
2020/12/16 19:02:21;;;;;;;69.1;55;;;;;;;2.45;83.51465;99520.84;;;;
2020/12/16 19:12:15;;;;;;;94.1;62.8;;;;;;;2.4;83.62402;99530.54;;;;
2020/12/16 19:22:13;;;;;;;68;52;;;;;;;2.42;84.16895;99533.8;;;;
2020/12/16 19:32:11;;;;;;;102.5;83.6;;;;;;;2.36;83.95898;99522.21;;;;
2020/12/16 19:42:09;;;;;;;113;77.4;;;;;;;2.43;83.95313;99525.56;;;;
2020/12/16 19:52:08;;;;;;;107.8;78.7;;;;;;;2.45;83.68945;99538.65;;;;
2020/12/16 20:02:05;;;;;;;132.4;97.1;;;;;;;2.41;83.58301;99542.81;;;;
2020/12/16 20:12:03;;;;;;;232.3;188.3;;;;;;;2.31;83.68359;99551.37;;;;
2020/12/16 20:22:01;;;;;;;140.7;110.9;;;;;;;2.38;84.04004;99553.91;;;;
2020/12/16 20:31:59;;;;;;;150.8;118.3;;;;;;;2.43;83.90918;99546.84;;;;
2020/12/16 20:41:58;;;;;;;128.2;102.2;;;;;;;2.42;83.82617;99563.06;;;;
2020/12/16 20:51:56;;;;;;;129;100.6;;;;;;;2.34;84.33008;99574.03;;;;
2020/12/16 21:01:56;;;;;;;159;126.3;;;;;;;2.33;84.38477;99556.44;;;;
2020/12/16 21:11:52;;;;;;;152.5;123.1;;;;;;;2.36;84.48926;99563.98;;;;
2020/12/16 21:21:58;;;;;;;159.1;127.1;;;;;;;2.37;84.4248;99562.92;;;;
2020/12/16 21:31:48;;;;;;;167.2;122.6;;;;;;;2.31;84.18066;99561.19;;;;
2020/12/16 21:41:47;;;;;;;149.1;116.9;;;;;;;2.32;84.23926;99574.27;;;;
2020/12/16 21:51:44;;;;;;;152.4;120;;;;;;;2.34;84.26367;99574.03;;;;
2020/12/16 22:01:42;;;;;;;151.5;129;;;;;;;2.36;84.1582;99571.97;;;;
2020/12/16 22:11:40;;;;;;;150.2;120.4;;;;;;;2.3;84.34473;99570.2;;;;
2020/12/16 22:21:38;;;;;;;151.4;129.6;;;;;;;2.25;84.7998;99576.23;;;;
2020/12/16 22:31:36;;;;;;;145.6;116.1;;;;;;;2.35;84.2998;99586.3;;;;
2020/12/16 22:41:34;;;;;;;167.6;130.6;;;;;;;2.35;84.44336;99586.3;;;;
2020/12/16 22:51:32;;;;;;;144.6;109.5;;;;;;;2.25;85.16406;99581.55;;;;
2020/12/16 23:01:30;;;;;;;137.9;108.9;;;;;;;2.26;84.64551;99582.33;;;;
2020/12/16 23:11:28;;;;;;;110.1;83.2;;;;;;;2.33;84.38477;99573.22;;;;
2020/12/16 23:21:26;;;;;;;88.2;68.5;;;;;;;2.39;84.1875;99572.31;;;;
2020/12/16 23:31:24;;;;;;;116.8;95.5;;;;;;;2.5;83.66504;99570.67;;;;
2020/12/16 23:41:22;;;;;;;92.4;66.2;;;;;;;2.32;84.36133;99566.3;;;;
2020/12/16 23:51:20;;;;;;;75.8;60.7;;;;;;;2.36;84.51172;99569.31;;;;
